createdAt,value
2019-02-06T00:01:57.026Z,102538.13
2019-02-06T00:04:25.925Z,102536.91
2019-02-06T00:06:54.811Z,102534.48
2019-02-06T00:09:23.567Z,102543.97
2019-02-06T00:11:52.284Z,102543.00
2019-02-06T00:14:21.413Z,102536.17
2019-02-06T00:16:50.316Z,102537.39
2019-02-06T00:19:19.354Z,102535.88
2019-02-06T00:21:48.548Z,102537.69
2019-02-06T00:24:17.438Z,102540.83
2019-02-06T00:26:46.588Z,102543.89
2019-02-06T00:29:15.248Z,102541.00
2019-02-06T00:31:44.151Z,102548.31
2019-02-06T00:34:13.370Z,102543.72
2019-02-06T00:36:42.379Z,102543.02
2019-02-06T00:39:11.734Z,102539.80
2019-02-06T00:41:40.436Z,102540.53
2019-02-06T00:44:09.213Z,102545.19
2019-02-06T00:46:37.874Z,102547.13
2019-02-06T00:49:06.594Z,102547.13
2019-02-06T00:51:35.811Z,102548.16
2019-02-06T00:54:04.800Z,102550.00
2019-02-06T00:56:33.721Z,102552.57
2019-02-06T00:59:02.677Z,102550.62
2019-02-06T01:01:31.680Z,102554.75
2019-02-06T01:04:00.389Z,102558.84
2019-02-06T01:06:29.453Z,102565.14
2019-02-06T01:08:58.450Z,102560.44
2019-02-06T01:11:27.440Z,102563.53
2019-02-06T01:13:56.158Z,102559.41
2019-02-06T01:16:24.912Z,102550.64
2019-02-06T01:18:53.582Z,102545.34
2019-02-06T01:21:22.546Z,102555.32
2019-02-06T01:23:51.536Z,102563.36
2019-02-06T01:26:20.219Z,102560.87
2019-02-06T01:28:49.483Z,102558.35
2019-02-06T01:31:25.964Z,102562.52
2019-02-06T01:33:54.616Z,102563.69
2019-02-06T01:36:23.648Z,102564.78
2019-02-06T01:38:52.296Z,102561.03
2019-02-06T01:41:21.280Z,102563.75
2019-02-06T01:43:50.027Z,102554.41
2019-02-06T01:46:19.050Z,102559.83
2019-02-06T01:48:47.835Z,102556.18
2019-02-06T01:51:17.051Z,102556.11
2019-02-06T01:53:46.197Z,102563.29
2019-02-06T01:56:14.808Z,102574.05
2019-02-06T01:58:43.946Z,102568.02
2019-02-06T02:01:12.551Z,102571.64
2019-02-06T02:03:41.587Z,102566.41
2019-02-06T02:06:10.747Z,102558.34
2019-02-06T02:08:44.498Z,102563.83
2019-02-06T02:11:13.767Z,102565.03
2019-02-06T02:13:42.965Z,102565.44
2019-02-06T02:16:11.659Z,102569.37
2019-02-06T02:18:40.568Z,102564.81
2019-02-06T02:21:09.455Z,102560.80
2019-02-06T02:23:38.874Z,102561.97
2019-02-06T02:26:07.852Z,102565.10
2019-02-06T02:28:36.820Z,102559.64
2019-02-06T02:31:05.551Z,102560.45
2019-02-06T02:33:34.435Z,102554.19
2019-02-06T02:36:15.074Z,102551.93
2019-02-06T02:38:34.003Z,102546.61
2019-02-06T02:41:02.661Z,102542.66
2019-02-06T02:43:31.551Z,102546.23
2019-02-06T02:46:00.541Z,102547.83
2019-02-06T02:48:29.427Z,102544.37
2019-02-06T02:50:58.907Z,102544.70
2019-02-06T02:53:27.584Z,102548.55
2019-02-06T02:55:56.719Z,102543.48
2019-02-06T02:58:25.875Z,102541.55
2019-02-06T03:01:31.879Z,102541.20
2019-02-06T03:04:08.314Z,102541.06
2019-02-06T03:06:37.212Z,102540.22
2019-02-06T03:09:11.738Z,102529.94
2019-02-06T03:11:40.402Z,102540.97
2019-02-06T03:14:09.124Z,102541.50
2019-02-06T03:16:37.757Z,102539.21
2019-02-06T03:19:06.648Z,102543.19
2019-02-06T03:21:35.298Z,102537.75
2019-02-06T03:24:04.027Z,102538.37
2019-02-06T03:26:32.742Z,102537.17
2019-02-06T03:29:01.627Z,102535.45
2019-02-06T03:31:30.680Z,102529.87
2019-02-06T03:33:59.690Z,102523.75
2019-02-06T03:36:39.775Z,102526.14
2019-02-06T03:38:59.025Z,102525.74
2019-02-06T03:41:27.885Z,102530.53
2019-02-06T03:43:56.792Z,102532.08
2019-02-06T03:46:25.991Z,102538.50
2019-02-06T03:48:54.803Z,102524.99
2019-02-06T03:51:23.678Z,102530.34
2019-02-06T03:53:52.892Z,102514.23
2019-02-06T03:56:21.799Z,102508.69
2019-02-06T03:58:50.957Z,102504.75
2019-02-06T04:01:19.684Z,102505.86
2019-02-06T04:03:48.349Z,102501.30
2019-02-06T04:06:17.238Z,102503.95
2019-02-06T04:08:45.936Z,102501.52
2019-02-06T04:11:14.619Z,102498.14
2019-02-06T04:13:43.536Z,102495.70
2019-02-06T04:16:12.462Z,102505.80
2019-02-06T04:18:41.899Z,102498.14
2019-02-06T04:21:10.535Z,102491.45
2019-02-06T04:23:39.481Z,102501.06
2019-02-06T04:26:08.434Z,102492.07
2019-02-06T04:28:37.849Z,102491.77
2019-02-06T04:31:06.653Z,102479.62
2019-02-06T04:33:36.154Z,102480.33
2019-02-06T04:36:05.429Z,102487.73
2019-02-06T04:38:34.320Z,102475.78
2019-02-06T04:41:02.963Z,102475.99
2019-02-06T04:43:32.124Z,102472.84
2019-02-06T04:46:01.033Z,102488.86
2019-02-06T04:48:32.126Z,102479.20
2019-02-06T04:51:00.100Z,102474.37
2019-02-06T04:53:29.385Z,102480.89
2019-02-06T04:55:58.030Z,102484.44
2019-02-06T04:58:26.698Z,102469.83
2019-02-06T05:00:55.362Z,102479.41
2019-02-06T05:03:25.793Z,102472.91
2019-02-06T05:05:55.280Z,102473.38
2019-02-06T05:08:24.177Z,102480.28
2019-02-06T05:10:52.789Z,102463.05
2019-02-06T05:13:21.641Z,102459.37
2019-02-06T05:15:50.534Z,102459.59
2019-02-06T05:18:19.418Z,102459.97
2019-02-06T05:20:49.082Z,102461.55
2019-02-06T05:23:18.259Z,102459.89
2019-02-06T05:25:46.880Z,102449.22
2019-02-06T05:28:18.002Z,102444.50
2019-02-06T05:30:46.351Z,102434.63
2019-02-06T05:33:15.448Z,102444.00
2019-02-06T05:35:44.090Z,102435.51
2019-02-06T05:38:13.017Z,102439.15
2019-02-06T05:40:41.702Z,102437.00
2019-02-06T05:43:10.605Z,102438.77
2019-02-06T05:45:39.499Z,102441.52
2019-02-06T05:48:08.378Z,102439.08
2019-02-06T05:50:37.258Z,102453.86
2019-02-06T05:53:06.414Z,102427.14
2019-02-06T05:55:35.403Z,102411.45
2019-02-06T05:58:04.498Z,102409.96
2019-02-06T06:00:44.588Z,102397.33
2019-02-06T06:03:13.264Z,102396.34
2019-02-06T06:05:42.785Z,102398.83
2019-02-06T06:08:11.762Z,102389.72
2019-02-06T06:10:41.687Z,102397.42
2019-02-06T06:13:10.246Z,102395.95
2019-02-06T06:15:39.117Z,102393.69
2019-02-06T06:18:07.816Z,102384.78
2019-02-06T06:20:36.535Z,102387.86
2019-02-06T06:23:05.484Z,102384.50
2019-02-06T06:25:34.112Z,102380.44
2019-02-06T06:28:03.013Z,102374.91
2019-02-06T06:30:31.728Z,102382.61
2019-02-06T06:33:01.048Z,102376.69
2019-02-06T06:35:30.272Z,102380.56
2019-02-06T06:38:01.411Z,102381.41
2019-02-06T06:40:29.950Z,102363.95
2019-02-06T06:42:58.830Z,102364.74
2019-02-06T06:45:27.793Z,102357.93
2019-02-06T06:47:56.785Z,102375.98
2019-02-06T06:50:25.807Z,102381.60
2019-02-06T06:52:54.775Z,102380.41
2019-02-06T06:55:24.021Z,102380.20
2019-02-06T06:57:52.940Z,102384.44
2019-02-06T07:00:26.660Z,102395.59
2019-02-06T07:02:55.297Z,102399.05
2019-02-06T07:05:25.098Z,102395.33
2019-02-06T07:07:54.294Z,102387.28
2019-02-06T07:10:23.623Z,102389.63
2019-02-06T07:12:52.536Z,102384.40
2019-02-06T07:15:23.779Z,102372.45
2019-02-06T07:17:52.427Z,102378.64
2019-02-06T07:20:21.775Z,102374.48
2019-02-06T07:22:51.254Z,102373.42
2019-02-06T07:25:20.760Z,102364.53
2019-02-06T07:27:49.783Z,102359.13
2019-02-06T07:30:23.993Z,102353.24
2019-02-06T07:32:52.686Z,102366.52
2019-02-06T07:35:21.958Z,102355.19
2019-02-06T07:37:51.144Z,102364.93
2019-02-06T07:40:20.651Z,102357.27
2019-02-06T07:42:49.967Z,102359.13
2019-02-06T07:45:19.007Z,102372.14
2019-02-06T07:47:48.234Z,102366.13
2019-02-06T07:50:19.493Z,102357.62
2019-02-06T07:52:48.488Z,102354.39
2019-02-06T07:55:17.588Z,102354.89
2019-02-06T07:57:46.419Z,102339.31
2019-02-06T08:00:15.484Z,102335.85
2019-02-06T08:02:44.180Z,102334.17
2019-02-06T08:05:15.097Z,102314.03
2019-02-06T08:07:43.790Z,102317.58
2019-02-06T08:10:16.596Z,102322.70
2019-02-06T08:12:45.816Z,102327.40
2019-02-06T08:15:15.100Z,102309.95
2019-02-06T08:17:43.906Z,102313.89
2019-02-06T08:20:14.994Z,102306.27
2019-02-06T08:22:43.964Z,102297.20
2019-02-06T08:25:14.017Z,102299.94
2019-02-06T08:27:43.004Z,102299.31
2019-02-06T08:30:18.892Z,102291.70
2019-02-06T08:32:47.799Z,102283.91
2019-02-06T08:35:16.750Z,102282.41
2019-02-06T08:37:45.807Z,102289.92
2019-02-06T08:40:15.125Z,102290.17
2019-02-06T08:42:44.014Z,102291.63
2019-02-06T08:45:13.458Z,102282.36
2019-02-06T08:47:42.176Z,102267.63
2019-02-06T08:50:11.947Z,102268.59
2019-02-06T08:52:40.741Z,102268.09
2019-02-06T08:55:12.347Z,102278.13
2019-02-06T08:57:41.091Z,102278.10
2019-02-06T09:00:13.456Z,102276.19
2019-02-06T09:02:42.601Z,102267.56
2019-02-06T09:05:11.673Z,102269.81
2019-02-06T09:07:40.741Z,102265.09
2019-02-06T09:10:13.412Z,102247.19
2019-02-06T09:12:42.251Z,102232.84
2019-02-06T09:15:11.458Z,102242.73
2019-02-06T09:17:40.403Z,102246.42
2019-02-06T09:20:12.468Z,102233.82
2019-02-06T09:22:42.350Z,102222.05
2019-02-06T09:25:12.435Z,102211.20
2019-02-06T09:27:41.458Z,102222.95
2019-02-06T09:30:12.470Z,102214.52
2019-02-06T09:32:41.450Z,102207.88
2019-02-06T09:35:10.459Z,102202.39
2019-02-06T09:37:39.719Z,102192.45
2019-02-06T09:40:09.543Z,102191.88
2019-02-06T09:42:38.450Z,102188.68
2019-02-06T09:45:07.760Z,102187.31
2019-02-06T09:47:36.711Z,102172.92
2019-02-06T09:50:08.040Z,102171.63
2019-02-06T09:52:37.028Z,102176.31
2019-02-06T09:55:06.468Z,102179.75
2019-02-06T09:57:35.607Z,102172.61
2019-02-06T10:00:06.141Z,102167.62
2019-02-06T10:02:34.791Z,102168.57
2019-02-06T10:05:03.814Z,102168.50
2019-02-06T10:07:32.440Z,102174.76
2019-02-06T10:10:01.546Z,102173.07
2019-02-06T10:12:30.267Z,102169.03
2019-02-06T10:14:59.232Z,102162.63
2019-02-06T10:17:28.054Z,102147.81
2019-02-06T10:19:56.978Z,102141.56
2019-02-06T10:22:25.616Z,102141.16
2019-02-06T10:24:54.724Z,102135.83
2019-02-06T10:27:24.180Z,102131.63
2019-02-06T10:29:52.952Z,102121.87
2019-02-06T10:32:22.084Z,102110.84
2019-02-06T10:34:50.972Z,102114.56
2019-02-06T10:37:19.804Z,102113.41
2019-02-06T10:39:48.694Z,102110.42
2019-02-06T10:42:17.362Z,102099.66
2019-02-06T10:44:46.072Z,102101.30
2019-02-06T10:47:15.319Z,102109.74
2019-02-06T10:49:44.238Z,102103.45
2019-02-06T10:52:12.877Z,102085.89
2019-02-06T10:54:41.614Z,102068.17
2019-02-06T10:57:10.934Z,102066.72
2019-02-06T10:59:39.556Z,102059.23
2019-02-06T11:02:08.513Z,102063.53
2019-02-06T11:04:37.433Z,102074.48
2019-02-06T11:07:08.241Z,102059.30
2019-02-06T11:09:46.175Z,102045.46
2019-02-06T11:12:07.764Z,102044.75
2019-02-06T11:14:36.717Z,102052.00
2019-02-06T11:17:05.691Z,102056.38
2019-02-06T11:19:34.724Z,102045.66
2019-02-06T11:22:03.531Z,102056.24
2019-02-06T11:24:32.461Z,102033.61
2019-02-06T11:27:01.287Z,102055.62
2019-02-06T11:29:30.157Z,102032.44
2019-02-06T11:31:58.817Z,102044.03
2019-02-06T11:34:27.854Z,102035.78
2019-02-06T11:36:56.491Z,102027.23
2019-02-06T11:39:25.116Z,102018.48
2019-02-06T11:41:53.771Z,102014.69
2019-02-06T11:44:23.080Z,102010.76
2019-02-06T11:46:51.823Z,102000.87
2019-02-06T11:49:24.744Z,101996.98
2019-02-06T11:51:53.428Z,102001.67
2019-02-06T11:54:22.443Z,101986.34
2019-02-06T11:56:51.339Z,101982.48
2019-02-06T11:59:20.316Z,101982.32
2019-02-06T12:01:52.517Z,101970.72
2019-02-06T12:04:21.723Z,101969.84
2019-02-06T12:06:50.706Z,101958.81
2019-02-06T12:09:19.709Z,101948.81
2019-02-06T12:11:48.608Z,101933.22
2019-02-06T12:14:17.686Z,101930.22
2019-02-06T12:16:46.336Z,101940.12
2019-02-06T12:19:14.978Z,101925.77
2019-02-06T12:21:44.136Z,101925.42
2019-02-06T12:24:12.808Z,101959.29
2019-02-06T12:26:42.038Z,101952.25
2019-02-06T12:29:10.939Z,101948.80
2019-02-06T12:31:39.658Z,101948.14
2019-02-06T12:34:08.630Z,101941.92
2019-02-06T12:36:37.780Z,101938.17
2019-02-06T12:39:10.117Z,101922.75
2019-02-06T12:41:38.911Z,101941.31
2019-02-06T12:44:07.659Z,101941.98
2019-02-06T12:46:36.367Z,101936.09
2019-02-06T12:49:05.729Z,101923.78
2019-02-06T12:51:34.501Z,101929.65
2019-02-06T12:54:03.199Z,101918.73
2019-02-06T12:56:31.914Z,101917.41
2019-02-06T12:59:00.568Z,101935.59
2019-02-06T13:01:29.579Z,101918.50
2019-02-06T13:03:58.231Z,101913.66
2019-02-06T13:06:26.897Z,101913.66
2019-02-06T13:08:55.779Z,101917.22
2019-02-06T13:11:24.663Z,101922.14
2019-02-06T13:13:53.345Z,101918.50
2019-02-06T13:16:22.249Z,101916.33
2019-02-06T13:18:51.113Z,101910.53
2019-02-06T13:21:20.195Z,101907.85
2019-02-06T13:23:49.641Z,101905.73
2019-02-06T13:26:18.390Z,101907.30
2019-02-06T13:28:47.035Z,101906.19
2019-02-06T13:31:16.010Z,101895.77
2019-02-06T13:33:45.058Z,101903.22
2019-02-06T13:36:14.135Z,101902.80
2019-02-06T13:38:43.101Z,101900.39
2019-02-06T13:41:11.821Z,101887.95
2019-02-06T13:43:40.562Z,101888.67
2019-02-06T13:46:09.246Z,101889.44
2019-02-06T13:48:38.123Z,101877.93
2019-02-06T13:51:15.853Z,101878.64
2019-02-06T13:53:37.532Z,101876.06
2019-02-06T13:56:06.455Z,101875.91
2019-02-06T13:58:35.613Z,101882.84
2019-02-06T14:01:04.553Z,101882.84
2019-02-06T14:03:33.231Z,101872.29
2019-02-06T14:06:01.968Z,101878.91
2019-02-06T14:08:31.517Z,101878.91
2019-02-06T14:11:00.972Z,101858.29
2019-02-06T14:13:30.200Z,101855.41
2019-02-06T14:15:59.041Z,101850.78
2019-02-06T14:18:27.686Z,101850.97
2019-02-06T14:20:56.345Z,101851.84
2019-02-06T14:23:48.507Z,101851.56
2019-02-06T14:26:54.149Z,101854.66
2019-02-06T14:29:40.575Z,101860.58
2019-02-06T14:32:44.524Z,101843.36
2019-02-06T14:35:38.020Z,101862.28
2019-02-06T14:38:46.901Z,101856.72
2019-02-06T14:41:29.810Z,101862.92
2019-02-06T14:44:29.554Z,101866.95
2019-02-06T14:47:11.802Z,101864.63
2019-02-06T14:50:06.203Z,101858.00
2019-02-06T14:53:34.683Z,101861.11
2019-02-06T14:56:35.452Z,101849.33
2019-02-06T14:59:26.604Z,101841.72
2019-02-06T15:02:19.281Z,101842.95
2019-02-06T15:05:27.424Z,101847.81
2019-02-06T15:08:27.038Z,101837.38
2019-02-06T15:11:19.086Z,101837.61
2019-02-06T15:14:26.492Z,101846.98
2019-02-06T15:17:48.588Z,101840.60
2019-02-06T15:21:07.470Z,101844.88
2019-02-06T15:23:50.391Z,101845.83
2019-02-06T15:26:49.502Z,101838.59
2019-02-06T15:29:31.060Z,101837.31
2019-02-06T15:32:43.797Z,101838.66
2019-02-06T15:35:41.603Z,101843.80
2019-02-06T15:38:29.254Z,101841.92
2019-02-06T15:41:30.519Z,101839.12
2019-02-06T15:44:35.109Z,101836.14
2019-02-06T15:47:37.060Z,101828.51
2019-02-06T15:50:26.588Z,101825.70
2019-02-06T15:53:20.947Z,101831.28
2019-02-06T15:56:16.027Z,101824.51
2019-02-06T15:59:13.924Z,101821.46
2019-02-06T16:02:20.715Z,101829.77
2019-02-06T16:05:52.911Z,101823.74
2019-02-06T16:08:55.819Z,101825.91
2019-02-06T16:11:42.645Z,101827.13
2019-02-06T16:15:01.779Z,101832.41
2019-02-06T16:17:59.425Z,101825.16
2019-02-06T16:20:40.021Z,101824.75
2019-02-06T16:23:41.325Z,101824.69
2019-02-06T16:26:49.303Z,101827.48
2019-02-06T16:29:40.511Z,101824.03
2019-02-06T16:32:22.900Z,101830.00
2019-02-06T16:35:27.425Z,101823.16
2019-02-06T16:38:30.796Z,101817.13
2019-02-06T16:41:31.870Z,101809.41
2019-02-06T16:44:08.001Z,101817.19
2019-02-06T16:47:18.979Z,101816.56
2019-02-06T16:50:25.939Z,101809.13
2019-02-06T16:53:11.507Z,101810.95
2019-02-06T16:56:19.473Z,101812.70
2019-02-06T16:59:35.284Z,101818.53
2019-02-06T17:02:48.518Z,101813.27
2019-02-06T17:05:54.378Z,101812.23
2019-02-06T17:09:19.776Z,101812.35
2019-02-06T17:12:11.800Z,101809.24
2019-02-06T17:15:21.295Z,101808.78
2019-02-06T17:18:47.163Z,101817.38
2019-02-06T17:21:50.460Z,101810.61
2019-02-06T17:24:54.766Z,101813.59
2019-02-06T17:27:49.096Z,101808.44
2019-02-06T17:30:45.655Z,101805.39
2019-02-06T17:33:40.319Z,101796.84
2019-02-06T17:36:38.547Z,101801.47
2019-02-06T17:39:53.506Z,101795.75
2019-02-06T17:43:00.702Z,101792.93
2019-02-06T17:45:42.961Z,101788.72
2019-02-06T17:48:46.752Z,101794.12
2019-02-06T17:51:58.399Z,101790.95
2019-02-06T17:55:18.134Z,101793.52
2019-02-06T17:57:47.907Z,101799.08
2019-02-06T18:00:59.152Z,101784.63
2019-02-06T18:03:33.987Z,101783.13
2019-02-06T18:06:02.992Z,101786.11
2019-02-06T18:08:32.158Z,101776.56
2019-02-06T18:11:03.165Z,101786.52
2019-02-06T18:13:32.083Z,101778.53
2019-02-06T18:16:01.071Z,101772.97
2019-02-06T18:18:29.715Z,101777.08
2019-02-06T18:20:58.953Z,101770.98
2019-02-06T18:23:28.118Z,101773.63
2019-02-06T18:25:57.031Z,101771.73
2019-02-06T18:28:26.005Z,101770.56
2019-02-06T18:30:54.990Z,101773.20
2019-02-06T18:33:23.961Z,101766.47
2019-02-06T18:35:55.107Z,101767.98
2019-02-06T18:38:23.999Z,101771.83
2019-02-06T18:40:52.952Z,101773.18
2019-02-06T18:43:22.549Z,101772.95
2019-02-06T18:45:51.329Z,101774.82
2019-02-06T18:48:22.173Z,101772.34
2019-02-06T18:50:51.236Z,101775.17
2019-02-06T18:53:19.887Z,101765.02
2019-02-06T18:55:51.247Z,101768.17
2019-02-06T18:58:19.868Z,101771.11
2019-02-06T19:00:48.825Z,101760.86
2019-02-06T19:03:20.752Z,101756.46
2019-02-06T19:05:49.800Z,101760.86
2019-02-06T19:08:18.848Z,101755.41
2019-02-06T19:10:48.306Z,101752.77
2019-02-06T19:13:17.139Z,101757.45
2019-02-06T19:15:56.157Z,101752.83
2019-02-06T19:18:16.987Z,101759.21
2019-02-06T19:20:45.879Z,101757.16
2019-02-06T19:23:14.538Z,101756.28
2019-02-06T19:25:43.431Z,101760.91
2019-02-06T19:28:13.120Z,101758.09
2019-02-06T19:30:41.872Z,101762.37
2019-02-06T19:33:10.935Z,101755.52
2019-02-06T19:35:39.915Z,101761.38
2019-02-06T19:38:08.651Z,101749.95
2019-02-06T19:40:37.451Z,101752.21
2019-02-06T19:43:06.498Z,101756.40
2019-02-06T19:45:35.870Z,101751.95
2019-02-06T19:48:15.285Z,101742.22
2019-02-06T19:50:37.405Z,101748.08
2019-02-06T19:53:06.744Z,101742.58
2019-02-06T19:55:35.449Z,101751.50
2019-02-06T19:58:05.396Z,101751.06
2019-02-06T20:00:34.876Z,101758.04
2019-02-06T20:03:04.720Z,101738.91
2019-02-06T20:05:33.771Z,101738.82
2019-02-06T20:08:02.758Z,101733.40
2019-02-06T20:10:34.087Z,101732.47
2019-02-06T20:13:10.680Z,101738.30
2019-02-06T20:15:33.864Z,101733.75
2019-02-06T20:18:02.638Z,101731.70
2019-02-06T20:20:31.994Z,101731.92
2019-02-06T20:23:01.070Z,101733.52
2019-02-06T20:25:29.935Z,101737.44
2019-02-06T20:27:58.644Z,101739.02
2019-02-06T20:30:28.235Z,101728.92
2019-02-06T20:32:57.315Z,101731.96
2019-02-06T20:35:26.550Z,101725.95
2019-02-06T20:37:56.002Z,101715.35
2019-02-06T20:40:27.265Z,101721.39
2019-02-06T20:42:56.079Z,101721.45
2019-02-06T20:45:24.791Z,101712.57
2019-02-06T20:48:01.825Z,101716.49
2019-02-06T20:50:32.068Z,101713.77
2019-02-06T20:53:01.670Z,101713.66
2019-02-06T20:55:30.649Z,101713.66
2019-02-06T20:57:59.614Z,101713.54
2019-02-06T21:00:30.904Z,101720.09
2019-02-06T21:02:59.679Z,101717.05
2019-02-06T21:05:28.465Z,101713.28
2019-02-06T21:07:57.161Z,101711.48
2019-02-06T21:10:27.467Z,101707.97
2019-02-06T21:12:56.576Z,101711.22
2019-02-06T21:15:25.830Z,101720.86
2019-02-06T21:17:54.888Z,101720.72
2019-02-06T21:20:24.329Z,101712.88
2019-02-06T21:22:53.475Z,101728.66
2019-02-06T21:25:22.586Z,101718.81
2019-02-06T21:27:51.340Z,101719.43
2019-02-06T21:30:25.872Z,101717.67
2019-02-06T21:32:54.739Z,101701.56
2019-02-06T21:35:23.610Z,101701.63
2019-02-06T21:37:52.490Z,101684.98
2019-02-06T21:40:23.275Z,101699.69
2019-02-06T21:42:52.432Z,101690.38
2019-02-06T21:45:21.258Z,101692.72
2019-02-06T21:47:50.163Z,101689.78
2019-02-06T21:50:20.024Z,101692.60
2019-02-06T21:52:48.669Z,101688.63
2019-02-06T21:55:18.470Z,101686.05
2019-02-06T21:57:47.211Z,101687.19
2019-02-06T22:00:21.848Z,101683.41
2019-02-06T22:02:50.913Z,101673.27
2019-02-06T22:05:19.609Z,101672.13
2019-02-06T22:07:48.755Z,101667.63
2019-02-06T22:10:20.062Z,101666.64
2019-02-06T22:12:48.772Z,101664.13
2019-02-06T22:15:22.265Z,101663.19
2019-02-06T22:17:51.074Z,101656.95
2019-02-06T22:20:19.941Z,101663.39
2019-02-06T22:22:49.205Z,101649.00
2019-02-06T22:25:18.443Z,101637.63
2019-02-06T22:27:47.306Z,101634.99
2019-02-06T22:30:23.981Z,101626.38
2019-02-06T22:32:52.931Z,101627.15
2019-02-06T22:35:22.387Z,101624.88
2019-02-06T22:37:51.599Z,101625.28
2019-02-06T22:40:22.143Z,101628.83
2019-02-06T22:42:50.787Z,101625.55
2019-02-06T22:45:21.381Z,101638.61
2019-02-06T22:47:50.947Z,101630.47
2019-02-06T22:50:21.967Z,101623.16
2019-02-06T22:52:50.694Z,101619.96
2019-02-06T22:55:19.442Z,101617.39
2019-02-06T22:57:48.439Z,101618.00
2019-02-06T23:00:48.875Z,101615.84
2019-02-06T23:03:21.209Z,101613.73
2019-02-06T23:05:49.947Z,101610.53
2019-02-06T23:08:18.663Z,101604.80
2019-02-06T23:10:47.627Z,101598.83
2019-02-06T23:13:16.914Z,101597.19
2019-02-06T23:15:45.865Z,101604.98
2019-02-06T23:18:14.684Z,101601.85
2019-02-06T23:20:43.423Z,101590.41
2019-02-06T23:23:12.156Z,101582.42
2019-02-06T23:25:43.143Z,101580.67
2019-02-06T23:28:11.593Z,101575.41
2019-02-06T23:30:40.537Z,101579.67
2019-02-06T23:33:09.507Z,101575.34
2019-02-06T23:35:38.506Z,101580.38
2019-02-06T23:38:08.172Z,101571.89
2019-02-06T23:40:37.109Z,101565.16
2019-02-06T23:43:06.707Z,101558.70
2019-02-06T23:45:35.376Z,101558.55
2019-02-06T23:48:05.952Z,101554.75
2019-02-06T23:50:35.012Z,101551.23
2019-02-06T23:53:03.990Z,101558.42
2019-02-06T23:55:32.626Z,101551.77
2019-02-06T23:58:01.774Z,101545.80
